createdAt,value
2018-08-31T00:00:57.097Z,13.90
2018-08-31T00:03:28.741Z,13.90
2018-08-31T00:06:01.886Z,13.90
2018-08-31T00:08:35.056Z,13.90
2018-08-31T00:13:14.371Z,14.00
2018-08-31T00:15:41.945Z,14.00
2018-08-31T00:18:09.704Z,13.60
2018-08-31T00:20:37.308Z,13.50
2018-08-31T00:23:04.925Z,13.50
2018-08-31T00:26:10.975Z,13.50
2018-08-31T00:28:44.571Z,13.60
2018-08-31T00:31:17.708Z,13.70
2018-08-31T00:33:51.296Z,13.70
2018-08-31T00:36:26.296Z,13.40
2018-08-31T00:38:59.780Z,13.20
2018-08-31T00:42:41.392Z,13.10
2018-08-31T00:45:14.613Z,12.90
2018-08-31T00:47:42.666Z,13.10
2018-08-31T00:50:10.275Z,13.20
2018-08-31T00:52:37.863Z,13.10
2018-08-31T00:55:06.053Z,13.10
2018-08-31T00:57:34.049Z,13.10
2018-08-31T01:00:01.768Z,13.10
2018-08-31T01:02:29.342Z,13.20
2018-08-31T01:04:56.947Z,13.30
2018-08-31T01:07:24.863Z,13.30
2018-08-31T01:09:52.452Z,13.20
2018-08-31T01:12:20.079Z,13.20
2018-08-31T01:14:48.059Z,13.30
2018-08-31T01:17:15.659Z,13.40
2018-08-31T01:19:43.272Z,13.20
2018-08-31T01:22:10.920Z,13.10
2018-08-31T01:24:39.034Z,12.90
2018-08-31T01:27:06.623Z,13.00
2018-08-31T01:29:34.235Z,13.00
2018-08-31T01:32:02.512Z,13.00
2018-08-31T01:34:30.092Z,13.10
2018-08-31T01:36:57.663Z,13.20
2018-08-31T01:39:25.272Z,13.10
2018-08-31T01:41:53.142Z,13.10
2018-08-31T01:44:20.710Z,13.10
2018-08-31T01:46:48.364Z,12.90
2018-08-31T01:49:15.996Z,12.90
2018-08-31T01:51:44.044Z,12.80
2018-08-31T01:54:11.735Z,12.70
2018-08-31T01:56:39.412Z,12.70
2018-08-31T01:59:07.413Z,12.70
2018-08-31T02:01:35.439Z,12.80
2018-08-31T02:04:03.760Z,12.80
2018-08-31T02:06:31.907Z,12.90
2018-08-31T02:09:05.268Z,12.90
2018-08-31T02:11:32.892Z,12.90
2018-08-31T02:14:00.560Z,12.70
2018-08-31T02:16:28.601Z,12.70
2018-08-31T02:18:56.383Z,12.60
2018-08-31T02:21:24.019Z,12.60
2018-08-31T02:23:51.753Z,12.60
2018-08-31T02:26:19.660Z,12.50
2018-08-31T02:28:47.452Z,12.50
2018-08-31T02:31:15.313Z,12.60
2018-08-31T02:33:43.004Z,12.70
2018-08-31T02:36:11.029Z,12.80
2018-08-31T02:38:38.707Z,12.90
2018-08-31T02:41:06.405Z,12.70
2018-08-31T02:43:34.080Z,12.60
2018-08-31T02:46:02.105Z,12.60
2018-08-31T02:48:29.792Z,12.50
2018-08-31T02:50:57.449Z,12.60
2018-08-31T02:53:25.236Z,12.70
2018-08-31T02:55:53.421Z,12.70
2018-08-31T02:58:21.105Z,12.70
2018-08-31T03:00:49.152Z,12.60
2018-08-31T03:03:16.800Z,12.50
2018-08-31T03:05:45.117Z,12.40
2018-08-31T03:08:13.024Z,12.30
2018-08-31T03:10:40.767Z,12.30
2018-08-31T03:13:08.455Z,12.30
2018-08-31T03:15:36.625Z,12.40
2018-08-31T03:18:04.264Z,12.40
2018-08-31T03:20:32.004Z,12.30
2018-08-31T03:22:59.691Z,12.20
2018-08-31T03:25:27.734Z,12.30
2018-08-31T03:27:55.603Z,12.30
2018-08-31T03:30:23.290Z,12.40
2018-08-31T03:32:51.066Z,12.30
2018-08-31T03:35:19.203Z,12.30
2018-08-31T03:37:46.874Z,12.50
2018-08-31T03:40:14.612Z,12.50
2018-08-31T03:42:42.259Z,12.50
2018-08-31T03:45:10.258Z,12.50
2018-08-31T03:47:37.980Z,12.50
2018-08-31T03:50:05.677Z,12.40
2018-08-31T03:52:33.880Z,12.40
2018-08-31T03:55:01.620Z,12.50
2018-08-31T03:57:29.336Z,12.40
2018-08-31T03:59:57.099Z,12.30
2018-08-31T04:02:25.168Z,12.30
2018-08-31T04:04:53.019Z,12.20
2018-08-31T04:07:20.692Z,12.20
2018-08-31T04:09:48.377Z,12.30
2018-08-31T04:12:16.401Z,12.40
2018-08-31T04:14:44.089Z,12.40
2018-08-31T04:17:12.050Z,12.50
2018-08-31T04:19:40.177Z,12.70
2018-08-31T04:22:07.849Z,12.60
2018-08-31T04:24:35.532Z,12.40
2018-08-31T04:27:06.945Z,12.40
2018-08-31T04:29:35.208Z,12.40
2018-08-31T04:32:03.164Z,12.30
2018-08-31T04:34:31.789Z,12.40
2018-08-31T04:37:01.189Z,12.50
2018-08-31T04:39:28.906Z,12.60
2018-08-31T04:41:56.938Z,12.60
2018-08-31T04:44:24.590Z,12.70
2018-08-31T04:46:52.305Z,12.70
2018-08-31T04:49:20.325Z,12.70
2018-08-31T04:51:47.997Z,12.80
2018-08-31T04:54:15.692Z,12.80
2018-08-31T04:56:43.764Z,12.90
2018-08-31T04:59:11.455Z,13.00
2018-08-31T05:01:39.142Z,13.00
2018-08-31T05:04:08.580Z,13.00
2018-08-31T05:06:36.827Z,13.00
2018-08-31T05:09:06.468Z,13.00
2018-08-31T05:11:34.404Z,13.10
2018-08-31T05:14:02.096Z,13.30
2018-08-31T05:16:29.904Z,13.00
2018-08-31T05:18:58.045Z,13.00
2018-08-31T05:21:25.838Z,13.10
2018-08-31T05:23:53.630Z,13.30
2018-08-31T05:26:21.652Z,13.40
2018-08-31T05:28:49.465Z,13.50
2018-08-31T05:31:17.272Z,13.60
2018-08-31T05:33:50.926Z,13.40
2018-08-31T05:36:32.680Z,13.30
2018-08-31T05:39:11.612Z,13.40
2018-08-31T05:41:39.375Z,13.70
2018-08-31T05:44:07.187Z,13.60
2018-08-31T05:46:35.268Z,13.40
2018-08-31T05:49:02.952Z,13.40
2018-08-31T05:51:30.668Z,13.50
2018-08-31T05:53:58.977Z,13.50
2018-08-31T05:56:26.744Z,13.40
2018-08-31T05:58:54.449Z,13.20
2018-08-31T06:01:22.451Z,13.10
2018-08-31T06:03:50.159Z,12.80
2018-08-31T06:06:17.936Z,12.80
2018-08-31T06:08:46.067Z,12.90
2018-08-31T06:11:13.764Z,13.20
2018-08-31T06:13:42.011Z,13.40
2018-08-31T06:16:10.038Z,13.50
2018-08-31T06:18:37.844Z,13.40
2018-08-31T06:21:05.621Z,13.60
2018-08-31T06:23:33.677Z,13.90
2018-08-31T06:26:01.400Z,13.90
2018-08-31T06:28:29.071Z,13.70
2018-08-31T06:30:58.238Z,13.70
2018-08-31T06:33:26.072Z,13.70
2018-08-31T06:35:53.953Z,13.80
2018-08-31T06:38:22.030Z,14.10
2018-08-31T06:40:49.771Z,14.10
2018-08-31T06:43:17.973Z,14.50
2018-08-31T06:45:47.005Z,14.90
2018-08-31T06:48:14.846Z,14.80
2018-08-31T06:50:42.503Z,14.60
2018-08-31T06:53:10.556Z,14.70
2018-08-31T06:55:38.276Z,14.70
2018-08-31T06:58:06.065Z,14.80
2018-08-31T07:00:34.370Z,14.80
2018-08-31T07:03:02.101Z,14.80
2018-08-31T07:05:29.868Z,14.70
2018-08-31T07:07:57.998Z,14.80
2018-08-31T07:10:25.704Z,15.00
2018-08-31T07:12:53.368Z,15.20
2018-08-31T07:15:21.819Z,15.00
2018-08-31T07:17:49.731Z,15.00
2018-08-31T07:20:18.311Z,15.30
2018-08-31T07:22:46.364Z,15.10
2018-08-31T07:25:14.450Z,15.10
2018-08-31T07:27:42.369Z,15.10
2018-08-31T07:30:10.379Z,15.20
2018-08-31T07:32:44.563Z,15.40
2018-08-31T07:35:13.298Z,15.60
2018-08-31T07:37:57.372Z,15.80
2018-08-31T07:40:27.268Z,15.60
2018-08-31T07:42:55.374Z,15.70
2018-08-31T07:45:24.885Z,15.40
2018-08-31T07:47:52.665Z,15.00
2018-08-31T07:50:21.564Z,15.30
2018-08-31T07:52:49.535Z,15.60
2018-08-31T07:55:18.679Z,15.40
2018-08-31T07:57:49.582Z,15.00
2018-08-31T08:00:43.388Z,14.80
2018-08-31T08:03:14.086Z,14.60
2018-08-31T08:05:44.350Z,14.70
2018-08-31T08:08:13.954Z,14.90
2018-08-31T08:10:42.019Z,14.90
2018-08-31T08:13:12.273Z,15.00
2018-08-31T08:15:40.090Z,15.00
2018-08-31T08:18:08.054Z,15.30
2018-08-31T08:20:35.764Z,15.30
2018-08-31T08:23:03.598Z,15.40
2018-08-31T08:25:31.687Z,15.50
2018-08-31T08:28:01.208Z,15.50
2018-08-31T08:30:28.939Z,15.60
2018-08-31T08:32:58.785Z,15.40
2018-08-31T08:35:26.507Z,15.50
2018-08-31T08:37:54.662Z,15.80
2018-08-31T08:40:22.347Z,16.00
2018-08-31T08:42:50.086Z,16.10
2018-08-31T08:45:26.225Z,16.10
2018-08-31T08:52:29.891Z,16.00
2018-08-31T08:54:57.621Z,16.20
2018-08-31T08:57:25.393Z,16.40
2018-08-31T08:59:53.759Z,16.40
2018-08-31T09:02:22.905Z,16.30
2018-08-31T09:04:50.571Z,16.30
2018-08-31T09:07:18.888Z,16.40
2018-08-31T09:09:48.040Z,15.80
2018-08-31T09:12:15.827Z,15.30
2018-08-31T09:14:44.353Z,15.40
2018-08-31T09:17:12.043Z,15.70
2018-08-31T09:19:40.022Z,15.70
2018-08-31T09:22:08.079Z,16.00
2018-08-31T09:24:35.898Z,16.40
2018-08-31T09:27:03.781Z,16.90
2018-08-31T09:29:31.843Z,16.80
2018-08-31T09:32:03.824Z,17.10
2018-08-31T09:34:33.055Z,17.20
2018-08-31T09:37:02.720Z,17.50
2018-08-31T09:39:40.169Z,17.60
2018-08-31T09:42:08.226Z,18.00
2018-08-31T09:44:36.573Z,18.50
2018-08-31T09:47:06.104Z,18.40
2018-08-31T09:49:35.605Z,18.70
2018-08-31T09:52:03.795Z,18.80
2018-08-31T09:54:33.160Z,18.20
2018-08-31T09:57:02.961Z,18.30
2018-08-31T09:59:30.653Z,18.30
2018-08-31T10:02:04.631Z,18.30
2018-08-31T10:04:34.903Z,18.10
2018-08-31T10:10:05.648Z,18.20
2018-08-31T10:12:33.874Z,17.80
2018-08-31T10:15:02.803Z,18.10
2018-08-31T10:17:30.988Z,17.60
2018-08-31T10:19:59.329Z,16.50
2018-08-31T10:22:28.462Z,16.50
2018-08-31T10:24:57.829Z,16.80
2018-08-31T10:27:25.514Z,17.30
2018-08-31T10:29:55.257Z,17.20
2018-08-31T10:32:24.241Z,17.00
2018-08-31T10:35:50.993Z,17.00
2018-08-31T10:38:19.962Z,16.80
2018-08-31T10:40:52.311Z,17.00
2018-08-31T10:43:20.396Z,16.90
2018-08-31T10:45:48.444Z,16.70
2018-08-31T10:48:34.140Z,16.60
2018-08-31T10:51:13.607Z,16.70
2018-08-31T10:53:42.744Z,16.50
2018-08-31T10:56:34.283Z,16.30
2018-08-31T10:59:04.801Z,16.50
2018-08-31T11:01:35.364Z,16.90
2018-08-31T11:04:03.097Z,17.50
2018-08-31T11:06:34.341Z,17.80
2018-08-31T11:09:02.620Z,17.90
2018-08-31T11:11:31.462Z,17.60
2018-08-31T11:13:59.736Z,17.00
2018-08-31T11:16:28.297Z,16.30
2018-08-31T11:19:03.913Z,15.80
2018-08-31T11:21:31.652Z,15.80
2018-08-31T11:24:01.342Z,16.20
2018-08-31T11:26:32.160Z,16.50
2018-08-31T11:28:59.873Z,16.70
2018-08-31T11:31:28.251Z,16.60
2018-08-31T11:33:57.523Z,16.80
2018-08-31T11:36:25.892Z,17.00
2018-08-31T11:38:53.910Z,17.10
2018-08-31T11:41:21.850Z,17.40
2018-08-31T11:43:49.601Z,17.30
2018-08-31T11:46:18.570Z,17.30
2018-08-31T11:48:46.780Z,17.40
2018-08-31T11:51:14.550Z,17.50
2018-08-31T11:53:44.473Z,17.50
2018-08-31T11:56:16.644Z,17.60
2018-08-31T11:58:46.549Z,17.70
2018-08-31T12:01:14.668Z,17.80
2018-08-31T12:03:43.247Z,17.70
2018-08-31T12:06:11.202Z,17.60
2018-08-31T12:08:39.400Z,17.50
2018-08-31T12:11:07.328Z,17.20
2018-08-31T12:13:35.140Z,17.40
2018-08-31T12:16:03.483Z,17.50
2018-08-31T12:18:31.924Z,17.00
2018-08-31T12:20:59.763Z,17.00
2018-08-31T12:23:30.338Z,17.00
2018-08-31T12:25:58.470Z,16.90
2018-08-31T12:28:29.331Z,17.00
2018-08-31T12:30:57.777Z,17.40
2018-08-31T12:33:28.136Z,17.40
2018-08-31T12:35:56.831Z,17.30
2018-08-31T12:38:39.046Z,17.10
2018-08-31T12:41:07.664Z,17.00
2018-08-31T12:43:49.928Z,17.30
2018-08-31T12:46:18.152Z,17.10
2018-08-31T12:48:46.116Z,16.70
2018-08-31T12:51:14.054Z,16.80
2018-08-31T12:53:44.559Z,16.90
2018-08-31T12:56:12.610Z,17.10
2018-08-31T12:58:40.649Z,17.10
2018-08-31T13:01:11.443Z,16.60
2018-08-31T13:03:39.134Z,16.50
2018-08-31T13:06:06.887Z,16.60
2018-08-31T13:08:35.075Z,16.70
2018-08-31T13:11:02.887Z,16.90
2018-08-31T13:13:30.925Z,16.90
2018-08-31T13:15:59.103Z,16.90
2018-08-31T13:18:26.923Z,17.10
2018-08-31T13:21:07.433Z,17.30
2018-08-31T13:23:35.697Z,17.20
2018-08-31T13:26:03.786Z,17.10
2018-08-31T13:28:48.561Z,17.20
2018-08-31T13:31:18.450Z,17.40
2018-08-31T13:33:47.840Z,17.80
2018-08-31T13:36:20.704Z,18.30
2018-08-31T13:38:48.691Z,18.50
2018-08-31T13:41:17.620Z,18.90
2018-08-31T13:43:52.116Z,18.50
2018-08-31T13:46:21.568Z,18.70
2018-08-31T13:48:58.856Z,18.80
2018-08-31T13:51:26.864Z,19.00
2018-08-31T13:53:54.627Z,19.10
2018-08-31T13:56:23.261Z,18.70
2018-08-31T13:58:52.418Z,18.50
2018-08-31T14:01:21.977Z,18.50
2018-08-31T14:03:51.031Z,18.60
2018-08-31T14:06:20.489Z,18.40
2018-08-31T14:08:49.684Z,18.60
2018-08-31T14:11:17.390Z,18.50
2018-08-31T14:13:45.918Z,18.30
2018-08-31T14:16:13.725Z,18.20
2018-08-31T14:18:43.224Z,18.10
2018-08-31T14:21:11.503Z,17.60
2018-08-31T14:23:39.449Z,17.80
2018-08-31T14:26:11.887Z,17.70
2018-08-31T14:29:07.579Z,17.40
2018-08-31T14:31:36.424Z,17.30
2018-08-31T14:34:04.437Z,16.60
2018-08-31T14:36:34.671Z,16.50
2018-08-31T14:39:02.696Z,16.60
2018-08-31T14:41:30.657Z,16.60
2018-08-31T14:44:05.345Z,16.60
2018-08-31T14:46:37.781Z,16.60
2018-08-31T14:49:05.776Z,16.60
2018-08-31T14:51:33.492Z,16.40
2018-08-31T14:54:03.090Z,16.30
2018-08-31T14:56:31.159Z,16.20
2018-08-31T14:58:59.061Z,16.30
2018-08-31T15:01:27.251Z,16.30
2018-08-31T15:03:55.608Z,16.10
2018-08-31T15:06:27.345Z,16.10
2018-08-31T15:12:03.858Z,16.10
2018-08-31T15:14:32.728Z,16.20
2018-08-31T15:17:01.625Z,16.40
2018-08-31T15:19:33.436Z,16.40
2018-08-31T15:22:01.514Z,16.40
2018-08-31T15:24:30.801Z,16.40
2018-08-31T15:26:59.668Z,16.40
2018-08-31T15:29:28.109Z,16.30
2018-08-31T15:32:05.626Z,16.20
2018-08-31T15:34:36.562Z,16.30
2018-08-31T15:37:09.381Z,16.30
2018-08-31T15:39:38.365Z,16.20
2018-08-31T15:42:07.024Z,16.20
2018-08-31T15:44:34.985Z,16.30
2018-08-31T15:47:05.445Z,16.20
2018-08-31T15:49:33.278Z,16.10
2018-08-31T15:52:01.521Z,16.00
2018-08-31T15:54:30.134Z,16.10
2018-08-31T15:57:00.289Z,16.30
2018-08-31T15:59:31.403Z,16.30
2018-08-31T16:02:13.061Z,16.30
2018-08-31T16:05:18.343Z,16.30
2018-08-31T16:07:50.392Z,16.40
2018-08-31T16:10:18.158Z,16.20
2018-08-31T16:12:45.840Z,16.30
2018-08-31T16:15:22.424Z,16.30
2018-08-31T16:17:50.873Z,16.20
2018-08-31T16:20:19.044Z,16.10
2018-08-31T16:22:47.325Z,16.30
2018-08-31T16:25:17.591Z,16.10
2018-08-31T16:27:48.108Z,15.90
2018-08-31T16:30:15.776Z,15.90
2018-08-31T16:32:43.607Z,16.00
2018-08-31T16:35:11.700Z,16.00
2018-08-31T16:37:39.818Z,15.90
2018-08-31T16:40:07.836Z,15.90
2018-08-31T16:42:35.992Z,15.80
2018-08-31T16:45:03.730Z,15.90
2018-08-31T16:47:31.471Z,15.90
2018-08-31T16:49:59.561Z,15.80
2018-08-31T17:05:10.710Z,15.60
2018-08-31T17:07:39.853Z,15.10
2018-08-31T17:10:08.404Z,15.10
2018-08-31T17:12:48.890Z,15.10
2018-08-31T17:15:16.680Z,15.10
2018-08-31T17:17:45.084Z,15.00
2018-08-31T17:20:12.953Z,14.90
2018-08-31T17:22:43.282Z,15.00
2018-08-31T17:25:11.266Z,15.00
2018-08-31T17:27:51.904Z,14.90
2018-08-31T17:30:24.116Z,14.90
2018-08-31T17:38:13.857Z,14.90
2018-08-31T17:40:52.349Z,14.80
2018-08-31T17:43:26.328Z,14.90
2018-08-31T17:46:03.337Z,14.90
2018-08-31T17:48:33.644Z,15.00
2018-08-31T17:51:27.801Z,14.90
2018-08-31T17:57:07.366Z,15.00
2018-08-31T18:00:10.404Z,15.00
2018-08-31T18:02:42.873Z,15.00
2018-08-31T18:05:13.586Z,14.90
2018-08-31T18:07:42.201Z,15.00
2018-08-31T18:10:20.606Z,14.90
2018-08-31T18:12:51.982Z,14.80
2018-08-31T18:15:20.410Z,14.70
2018-08-31T18:17:58.805Z,14.60
2018-08-31T18:20:44.560Z,14.60
2018-08-31T18:23:14.751Z,14.60
2018-08-31T18:25:46.438Z,14.80
2018-08-31T18:28:19.940Z,14.90
2018-08-31T18:30:52.805Z,14.90
2018-08-31T18:36:09.856Z,14.80
2018-08-31T18:38:40.368Z,14.80
2018-08-31T18:41:10.147Z,14.80
2018-08-31T18:43:37.944Z,14.70
2018-08-31T18:46:06.713Z,14.70
2018-08-31T18:48:37.806Z,14.70
2018-08-31T18:51:06.109Z,14.70
2018-08-31T18:53:36.385Z,14.70
2018-08-31T18:56:06.971Z,14.70
2018-08-31T18:58:37.838Z,14.70
2018-08-31T19:01:10.285Z,14.70
2018-08-31T19:03:41.281Z,14.70
2018-08-31T19:06:12.325Z,14.70
2018-08-31T19:08:41.669Z,14.70
2018-08-31T19:11:10.870Z,14.70
2018-08-31T19:13:39.678Z,14.80
2018-08-31T19:16:07.835Z,14.80
2018-08-31T19:18:36.297Z,14.80
2018-08-31T19:21:06.135Z,14.90
2018-08-31T19:23:39.896Z,14.80
2018-08-31T19:26:19.434Z,14.80
2018-08-31T19:28:48.965Z,14.80
2018-08-31T19:31:19.256Z,14.80
2018-08-31T19:33:47.563Z,14.80
2018-08-31T19:36:16.229Z,14.80
2018-08-31T19:38:45.364Z,14.90
2018-08-31T19:41:13.271Z,14.70
2018-08-31T19:43:41.225Z,14.80
2018-08-31T19:46:09.830Z,14.60
2018-08-31T19:48:37.732Z,14.60
2018-08-31T19:51:06.024Z,14.60
2018-08-31T19:53:34.125Z,14.60
2018-08-31T19:56:06.023Z,14.50
2018-08-31T19:58:34.174Z,14.60
2018-08-31T20:01:11.121Z,14.60
2018-08-31T20:03:39.894Z,14.60
2018-08-31T20:06:09.977Z,14.60
2018-08-31T20:08:38.643Z,14.60
2018-08-31T20:11:07.118Z,14.50
2018-08-31T20:13:35.737Z,14.50
2018-08-31T20:16:04.415Z,14.50
2018-08-31T20:18:32.536Z,14.60
2018-08-31T20:21:01.475Z,14.70
2018-08-31T20:23:29.658Z,14.60
2018-08-31T20:25:59.691Z,14.70
2018-08-31T20:28:29.248Z,14.70
2018-08-31T20:30:58.683Z,14.80
2018-08-31T20:33:27.396Z,14.70
2018-08-31T20:35:57.134Z,14.80
2018-08-31T20:38:25.314Z,14.70
2018-08-31T20:40:53.557Z,14.60
2018-08-31T20:43:22.532Z,14.70
2018-08-31T20:45:51.064Z,14.60
2018-08-31T20:48:20.220Z,14.60
2018-08-31T20:50:49.080Z,14.60
2018-08-31T20:53:17.390Z,14.60
2018-08-31T20:55:45.165Z,14.60
2018-08-31T20:58:13.220Z,14.60
2018-08-31T21:00:41.179Z,14.70
2018-08-31T21:03:09.676Z,14.70
2018-08-31T21:05:37.797Z,14.60
2018-08-31T21:08:05.792Z,14.70
2018-08-31T21:10:41.556Z,14.60
2018-08-31T21:13:09.848Z,14.70
2018-08-31T21:15:38.981Z,14.70
2018-08-31T21:18:06.868Z,14.70
2018-08-31T21:20:35.171Z,14.70
2018-08-31T21:23:02.892Z,14.60
2018-08-31T21:25:30.700Z,14.60
2018-08-31T21:28:00.502Z,14.70
2018-08-31T21:30:29.109Z,14.70
2018-08-31T21:32:57.277Z,14.70
2018-08-31T21:35:25.560Z,14.70
2018-08-31T21:37:53.563Z,14.70
2018-08-31T21:40:22.134Z,14.70
2018-08-31T21:42:51.266Z,14.50
2018-08-31T21:45:20.527Z,14.50
2018-08-31T21:47:48.556Z,14.50
2018-08-31T21:50:17.273Z,14.40
2018-08-31T21:53:08.013Z,14.40
2018-08-31T21:55:42.971Z,14.50
2018-08-31T21:58:20.940Z,14.50
2018-08-31T22:00:53.710Z,14.40
2018-08-31T22:03:27.855Z,14.40
2018-08-31T22:07:27.948Z,14.40
2018-08-31T22:09:56.722Z,14.30
2018-08-31T22:12:24.782Z,14.40
2018-08-31T22:14:52.672Z,14.40
2018-08-31T22:17:20.517Z,14.40
2018-08-31T22:19:48.636Z,14.30
2018-08-31T22:22:18.691Z,14.40
2018-08-31T22:24:46.409Z,14.50
2018-08-31T22:27:14.693Z,14.40
2018-08-31T22:29:43.113Z,14.40
2018-08-31T22:32:10.857Z,14.50
2018-08-31T22:34:38.889Z,14.40
2018-08-31T22:37:06.760Z,14.30
2018-08-31T22:39:34.457Z,14.40
2018-08-31T22:42:02.459Z,14.40
2018-08-31T22:44:34.432Z,14.40
2018-08-31T22:47:02.340Z,14.20
2018-08-31T22:49:30.342Z,14.20
2018-08-31T22:51:58.462Z,14.20
2018-08-31T22:54:26.133Z,14.20
2018-08-31T22:56:54.601Z,14.30
2018-08-31T22:59:22.300Z,14.40
2018-08-31T23:01:50.074Z,14.40
2018-08-31T23:04:18.413Z,14.40
2018-08-31T23:06:46.130Z,14.40
2018-08-31T23:09:14.341Z,14.30
2018-08-31T23:11:42.339Z,14.30
2018-08-31T23:14:10.709Z,14.30
2018-08-31T23:16:38.433Z,14.30
2018-08-31T23:19:06.740Z,14.40
2018-08-31T23:21:34.410Z,14.40
2018-08-31T23:24:02.670Z,14.40
2018-08-31T23:26:30.425Z,14.50
2018-08-31T23:28:58.548Z,14.50
2018-08-31T23:31:26.796Z,14.60
2018-08-31T23:33:54.833Z,14.60
2018-08-31T23:36:22.526Z,14.50
2018-08-31T23:38:50.212Z,14.40
2018-08-31T23:41:18.708Z,14.30
2018-08-31T23:43:46.728Z,14.30
2018-08-31T23:46:14.456Z,14.30
2018-08-31T23:48:44.832Z,14.40
2018-08-31T23:51:13.414Z,14.50
2018-08-31T23:53:41.280Z,14.40
2018-08-31T23:56:09.544Z,14.40
2018-08-31T23:58:37.216Z,14.40
